Погода Кузовинона 2 недели

Могилёвская область, Белоруссия

26 мая-08 июня
  • 26мая
    Сегодня
    +12°
    +26°
    Практически безоблачно
    ВремяПогодаТемператураВлажностьДавлениеВетер, м/сВероятность осадков
    00:00Ясно и безоблачно+15°C73 %753 мм2.0 м/с2 %
    03:00Практически безоблачно+11°C76 %753 мм1.6 м/с2 %
    06:00Ясно и безоблачно+11°C78 %753 мм1.6 м/с2 %
    09:00Облачно с прояснениями+19°C58 %753 мм1.1 м/с2 %
    12:00Практически безоблачно+23°C39 %753 мм1.6 м/с2 %
    15:00Практически безоблачно+25°C33 %753 мм2.4 м/с2 %
    18:00Практически безоблачно+25°C39 %752 мм2.4 м/с2 %
    21:00Практически безоблачно+20°C66 %752 мм1.3 м/с2 %
  • 27мая
    Понедельник
    +13°
    +27°
    Практически безоблачно
    ВремяПогодаТемператураВлажностьДавлениеВетер, м/сВероятность осадков
    00:00Ясно и безоблачно+16°C65 %752 мм1.6 м/с2 %
    03:00Ясно и безоблачно+14°C82 %752 мм1.4 м/с2 %
    06:00Ясно и безоблачно+14°C76 %752 мм2.1 м/с2 %
    09:00Ясно и безоблачно+20°C60 %753 мм1.7 м/с2 %
    12:00Ясно и безоблачно+25°C41 %753 мм3.0 м/с2 %
    15:00Практически безоблачно+26°C42 %752 мм2.5 м/с5 %
    18:00Небольшая облачность+25°C51 %751 мм1.9 м/с17 %
    21:00Ясно и безоблачно+21°C75 %751 мм1.8 м/с4 %
  • 28мая
    Вторник
    +13°
    +25°
    Практически безоблачно
    ВремяПогодаТемператураВлажностьДавлениеВетер, м/сВероятность осадков
    00:00Ясно и безоблачно+18°C85 %751 мм2.3 м/с2 %
    03:00Практически безоблачно+15°C90 %751 мм2.0 м/с2 %
    06:00Ясно и безоблачно+15°C86 %751 мм2.3 м/с1 %
    09:00Ясно и безоблачно+20°C64 %751 мм2.1 м/с1 %
    12:00Ясно и безоблачно+24°C50 %750 мм2.9 м/с9 %
    15:00Практически безоблачно+25°C46 %749 мм2.8 м/с17 %
    18:00Облачно с прояснениями+25°C45 %749 мм2.8 м/с32 %
    21:00Практически безоблачно+21°C72 %749 мм2.4 м/с15 %
  • 29мая
    Среда
    +15°
    +26°
    Ясно и безоблачно
    ВремяПогодаТемператураВлажностьДавлениеВетер, м/сВероятность осадков
    00:00Ясно и безоблачно+17°C84 %748 мм2.3 м/с2 %
    03:00Ясно и безоблачно+15°C86 %747 мм1.8 м/с2 %
    06:00Небольшая облачность+15°C80 %747 мм2.2 м/с2 %
    09:00Облачно с прояснениями+21°C60 %747 мм1.6 м/с2 %
    12:00Небольшая облачность+25°C34 %747 мм2.6 м/с9 %
    15:00Ясно и безоблачно+26°C36 %746 мм2.7 м/с15 %
    18:00Ясно и безоблачно+27°C38 %745 мм2.6 м/с11 %
    21:00Практически безоблачно+22°C58 %745 мм1.8 м/с2 %
  • 30мая
    Четверг
    +13°
    +25°
    Практически безоблачно
    ВремяПогодаТемператураВлажностьДавлениеВетер, м/сВероятность осадков
    00:00Ясно и безоблачно+18°C66 %744 мм2.2 м/с2 %
    03:00Облачно с прояснениями+16°C71 %744 мм1.8 м/с4 %
    06:00Облачно с прояснениями+16°C73 %743 мм2.6 м/с2 %
    09:00Пасмурно, сплошная облачность+20°C60 %743 мм2.3 м/с2 %
    12:00Облачно с прояснениями+24°C35 %743 мм3.8 м/с5 %
    15:00Практически безоблачно+25°C34 %743 мм3.6 м/с13 %
    18:00Небольшая облачность+25°C33 %742 мм3.3 м/с17 %
    21:00Практически безоблачно+21°C49 %742 мм2.1 м/с12 %
Мы используем cookies
Соглашаюсь